Hemingford Grey, United Kingdom
Current Conditions -  °F | °C
As of 4:50 PM on Tuesday 27 Jan 2015 (Local Time) from EGSC Reporting Station
Broken Clouds Broken Clouds  
Wind Chill: 41°   Ceiling: 2700
Heat Index: 45°   Visibility: 6mi
Dew Point: 39°   Wind: 6mph
Humidity: 81%   Direction: 210°SSW
Pressure: 30.24"   Gusts: NA
Location:  52.32°N, 0.1°W
Report Text: EGSC 271650Z 21005KT 9999 BKN027 07/04 Q1024
Loading
Personal Weather Stations






























Interactive Weather Map New forecast layout! Learn more

10-Day Weather Forecast

Advertisements
Track Severe Weather on mobile